createdAt,value
2022-12-25T00:06:58.645Z,4.9
2022-12-25T00:16:59.037Z,4.8
2022-12-25T00:26:59.896Z,4.9
2022-12-25T00:37:00.944Z,5
2022-12-25T00:57:02.184Z,5.2
2022-12-25T01:07:02.406Z,5.3
2022-12-25T01:17:03.225Z,5.5
2022-12-25T01:27:03.432Z,5.7
2022-12-25T01:47:03.922Z,6
2022-12-25T01:57:04.742Z,6.1
2022-12-25T02:07:04.953Z,6.1
2022-12-25T02:27:06.100Z,6.4
2022-12-25T02:37:06.806Z,6.4
2022-12-25T02:47:07.573Z,6.5
2022-12-25T02:57:07.854Z,6.6
2022-12-25T03:07:08.874Z,6.8
2022-12-25T03:17:09.219Z,7.1
2022-12-25T03:27:10.205Z,7.3
2022-12-25T03:47:11.527Z,8
2022-12-25T04:07:12.545Z,8.4
2022-12-25T04:17:13.476Z,8.5
2022-12-25T04:27:14.527Z,8.5
2022-12-25T04:37:15.148Z,8.5
2022-12-25T04:47:15.280Z,8.4
2022-12-25T05:07:16.501Z,8.1
2022-12-25T05:17:17.112Z,8
2022-12-25T05:27:17.863Z,7.8
2022-12-25T05:47:19.224Z,7.3
2022-12-25T06:17:21.127Z,6.9
2022-12-25T06:37:22.844Z,6.9
2022-12-25T06:57:24.931Z,6.7
2022-12-25T07:07:25.587Z,6.7
2022-12-25T07:27:26.167Z,7
2022-12-25T07:37:26.273Z,7
2022-12-25T08:07:28.396Z,6.8
2022-12-25T08:17:29.197Z,7
2022-12-25T08:27:30.095Z,7.1
2022-12-25T08:37:30.445Z,7
2022-12-25T08:47:31.301Z,7
2022-12-25T08:57:31.431Z,7
2022-12-25T09:07:31.746Z,7.1
2022-12-25T09:17:32.404Z,7.1
2022-12-25T09:27:33.365Z,7.2
2022-12-25T09:37:34.150Z,7.3
2022-12-25T09:47:34.403Z,7.3
2022-12-25T10:27:36.538Z,7.8
2022-12-25T10:37:36.957Z,7.9
2022-12-25T10:47:37.480Z,8
2022-12-25T10:57:38.153Z,8
2022-12-25T11:07:38.521Z,8.1
2022-12-25T11:17:39.312Z,8.3
2022-12-25T11:27:39.575Z,8.3
2022-12-25T11:37:40.391Z,8.4
2022-12-25T11:47:41.020Z,8.5
2022-12-25T11:57:41.594Z,8.6
2022-12-25T12:07:42.097Z,8.7
2022-12-25T12:17:43.119Z,8.7
2022-12-25T12:27:44.112Z,8.7
2022-12-25T12:37:44.776Z,8.7
2022-12-25T12:47:45.257Z,8.8
2022-12-25T13:07:46.399Z,8.8
2022-12-25T13:17:46.887Z,8.8
2022-12-25T13:27:47.817Z,8.9
2022-12-25T13:37:48.150Z,8.9
2022-12-25T13:47:54.832Z,8.9
2022-12-25T13:57:49.797Z,8.9
2022-12-25T14:07:50.388Z,8.9
2022-12-25T14:17:51.059Z,8.9
2022-12-25T14:37:52.227Z,8.9
2022-12-25T14:47:52.774Z,8.9
2022-12-25T14:57:53.378Z,8.9
2022-12-25T15:17:54.356Z,8.9
2022-12-25T15:27:55.365Z,8.8
2022-12-25T15:37:55.802Z,8.8
2022-12-25T15:47:56.171Z,8.9
2022-12-25T15:57:56.882Z,8.8
2022-12-25T16:07:57.009Z,8.8
2022-12-25T16:37:58.217Z,8.9
2022-12-25T16:47:59.176Z,9
2022-12-25T16:57:59.959Z,9
2022-12-25T17:08:00.947Z,9
2022-12-25T17:18:02.025Z,8.9
2022-12-25T17:28:02.929Z,8.9
2022-12-25T17:38:03.913Z,8.9
2022-12-25T17:48:05.010Z,8.9
2022-12-25T18:08:06.319Z,8.9
2022-12-25T18:18:07.046Z,8.9
2022-12-25T18:28:07.379Z,8.9
2022-12-25T18:38:08.242Z,9
2022-12-25T18:48:09.216Z,9.4
2022-12-25T18:58:09.630Z,9.8
2022-12-25T19:18:10.481Z,9.9
2022-12-25T19:28:11.389Z,10.1
2022-12-25T19:38:12.036Z,10.4
2022-12-25T19:48:12.241Z,10.5
2022-12-25T19:58:13.140Z,10.5
2022-12-25T20:08:13.891Z,10.6
2022-12-25T20:18:14.616Z,10.6
2022-12-25T20:28:15.202Z,10.6
2022-12-25T20:58:17.630Z,10.6
2022-12-25T21:08:18.215Z,10.7
2022-12-25T21:28:19.788Z,10.7
2022-12-25T21:48:20.335Z,10.7
2022-12-25T21:58:21.149Z,10.7
2022-12-25T22:08:22.198Z,10.7
2022-12-25T22:18:22.447Z,10.7
2022-12-25T22:28:22.619Z,10.7
2022-12-25T22:38:22.725Z,10.7
2022-12-25T22:48:23.481Z,10.6
2022-12-25T22:58:24.379Z,10.6
2022-12-25T23:08:24.668Z,10.6
2022-12-25T23:18:25.616Z,10.6
2022-12-25T23:28:26.489Z,10.6
2022-12-25T23:38:26.668Z,10.6
2022-12-25T23:58:27.698Z,10.5
